Time;durP1;ratioP1;P1;durP2;ratioP2;P2;SDS_P1;SDS_P2;PMS_P1;PMS_P2;Temp;Humidity;BMP_temperature;BMP_pressure;BME280_temperature;BME280_humidity;BME280_pressure;Samples;Min_cycle;Max_cycle;Signal;HPM_P1;HPM_P2
2021/07/24 00:00:53;;;;;;;12.98;8.90;;;;;;;17.95;73.94;98206.41;5016660;28;20031;-71
2021/07/24 00:03:19;;;;;;;16.80;9.40;;;;;;;17.88;74.42;98173.78;5041377;28;20116;-71
2021/07/24 00:05:44;;;;;;;12.70;9.02;;;;;;;17.89;74.66;98197.34;5039700;28;20433;-71
2021/07/24 00:08:09;;;;;;;14.75;9.07;;;;;;;17.84;74.32;98180.03;5037273;28;20055;-71
2021/07/24 00:10:35;;;;;;;14.82;8.43;;;;;;;17.94;74.61;98188.31;5049777;28;20021;-71
2021/07/24 00:13:00;;;;;;;16.80;9.48;;;;;;;17.77;75.33;98168.50;5040219;28;20124;-72
2021/07/24 00:15:25;;;;;;;12.65;8.35;;;;;;;17.87;74.78;98180.34;5045038;28;20033;-71
2021/07/24 00:17:50;;;;;;;14.07;8.68;;;;;;;17.78;75.02;98161.94;5018496;28;20144;-72
2021/07/24 00:20:16;;;;;;;14.73;8.57;;;;;;;17.75;74.90;98142.22;5023555;28;20083;-71
2021/07/24 00:22:41;;;;;;;16.95;8.90;;;;;;;17.71;74.37;98135.66;5048689;28;20690;-71
2021/07/24 00:25:07;;;;;;;16.98;8.70;;;;;;;17.80;72.99;98129.69;5038901;28;20152;-72
2021/07/24 00:27:32;;;;;;;14.07;8.60;;;;;;;18.02;72.71;98146.75;5030238;28;20427;-71
2021/07/24 00:29:58;;;;;;;13.98;8.93;;;;;;;18.18;73.06;98166.78;5024519;28;20523;-71
2021/07/24 00:32:23;;;;;;;17.45;9.05;;;;;;;18.07;72.94;98143.19;5032292;28;20032;-72
2021/07/24 00:34:48;;;;;;;15.20;8.98;;;;;;;18.12;73.42;98157.72;5039170;28;20106;-72
2021/07/24 00:37:18;;;;;;;14.90;9.40;;;;;;;17.89;74.19;98163.66;5030659;28;20025;-71
2021/07/24 00:39:43;;;;;;;13.35;8.52;;;;;;;17.57;74.98;98142.66;5033240;28;20703;-71
2021/07/24 00:42:17;;;;;;;15.98;9.38;;;;;;;17.72;75.42;98156.44;5049778;28;20029;-71
2021/07/24 00:44:45;;;;;;;18.25;9.05;;;;;;;17.68;75.59;98162.69;5030174;28;20032;-71
2021/07/24 00:47:18;;;;;;;13.80;8.75;;;;;;;17.62;74.90;98148.16;5048091;28;20083;-71
2021/07/24 00:49:48;;;;;;;15.77;8.65;;;;;;;17.77;74.63;98166.59;5011930;28;20095;-71
2021/07/24 00:52:14;;;;;;;14.02;9.25;;;;;;;17.68;74.96;98162.69;5029411;28;20017;-71
2021/07/24 00:54:41;;;;;;;14.70;8.93;;;;;;;17.73;75.26;98165.47;5092671;22;20000;-70
2021/07/24 00:57:07;;;;;;;13.30;9.05;;;;;;;17.62;75.63;98150.09;5031045;28;20033;-71
2021/07/24 00:59:35;;;;;;;14.63;9.02;;;;;;;17.43;75.71;98122.38;5051354;28;20033;-71
2021/07/24 01:02:01;;;;;;;12.38;8.82;;;;;;;17.58;76.14;98149.81;5021348;28;20029;-71
2021/07/24 01:04:26;;;;;;;13.60;8.55;;;;;;;17.52;76.12;98145.38;5038324;28;20035;-72
2021/07/24 01:06:52;;;;;;;12.23;9.38;;;;;;;17.43;76.32;98141.50;5049508;28;20104;-71
2021/07/24 01:09:18;;;;;;;14.27;9.02;;;;;;;17.47;75.66;98134.41;5047108;28;20368;-71
2021/07/24 01:11:43;;;;;;;14.25;8.52;;;;;;;17.60;75.33;98144.88;5031945;28;20667;-72
2021/07/24 01:14:10;;;;;;;14.60;8.70;;;;;;;17.70;74.97;98150.41;5040486;28;20070;-71
2021/07/24 01:16:35;;;;;;;13.50;8.95;;;;;;;17.69;74.86;98150.69;5031856;28;20065;-70
2021/07/24 01:19:01;;;;;;;16.42;9.60;;;;;;;17.68;74.85;98141.66;5033181;28;20060;-71
2021/07/24 01:21:28;;;;;;;17.42;9.85;;;;;;;17.53;75.36;98120.50;5036884;28;20048;-70
2021/07/24 01:23:53;;;;;;;18.80;9.60;;;;;;;17.56;74.97;98110.13;5031649;28;20038;-70
2021/07/24 01:26:30;;;;;;;14.57;9.15;;;;;;;17.63;75.28;98122.47;5031779;28;20087;-71
2021/07/24 01:28:56;;;;;;;15.13;9.07;;;;;;;17.63;75.04;98122.47;5032598;28;20041;-70
2021/07/24 01:31:22;;;;;;;15.93;9.32;;;;;;;17.71;74.14;98113.75;5015252;28;20040;-71
2021/07/24 01:33:48;;;;;;;15.70;9.23;;;;;;;17.61;73.86;98091.00;5033853;28;20372;-71
2021/07/24 01:36:13;;;;;;;15.35;9.35;;;;;;;17.62;74.35;98092.63;5046749;28;20033;-71
2021/07/24 01:38:42;;;;;;;12.15;8.50;;;;;;;17.65;74.85;98109.34;5034244;28;20030;-71
2021/07/24 01:41:16;;;;;;;15.63;8.95;;;;;;;17.60;75.69;98133.94;5031447;28;20074;-71
2021/07/24 01:43:42;;;;;;;17.50;9.48;;;;;;;17.35;76.44;98118.22;5014869;28;20029;-71
2021/07/24 01:46:07;;;;;;;13.43;9.02;;;;;;;16.95;78.30;98100.47;5040367;28;20512;-71
2021/07/24 01:54:01;;;;;;;15.75;9.50;;;;;;;16.69;80.94;98134.91;5033444;28;20132;-70
2021/07/24 01:56:30;;;;;;;16.15;9.65;;;;;;;16.73;80.22;98152.41;5032600;28;20398;-71
2021/07/24 01:58:56;;;;;;;16.88;8.82;;;;;;;16.70;80.52;98152.94;5050798;28;20079;-71
2021/07/24 02:01:28;;;;;;;14.50;8.57;;;;;;;16.69;80.72;98145.84;5031225;28;20029;-71
2021/07/24 02:04:17;;;;;;;15.40;10.38;;;;;;;16.79;80.33;98156.03;5049939;28;20037;-71
2021/07/24 02:06:43;;;;;;;14.43;9.57;;;;;;;16.86;80.22;98171.13;5024683;28;20037;-71
2021/07/24 02:09:08;;;;;;;15.27;9.70;;;;;;;16.94;79.87;98171.75;5020097;28;20111;-71
2021/07/24 02:11:34;;;;;;;14.70;9.50;;;;;;;16.95;79.83;98176.13;5033575;28;20059;-72
2021/07/24 02:13:59;;;;;;;14.43;9.80;;;;;;;16.82;79.93;98164.56;5051583;28;20029;-71
2021/07/24 02:16:26;;;;;;;13.23;9.10;;;;;;;16.94;79.61;98171.75;5021018;28;20033;-71
2021/07/24 02:18:51;;;;;;;16.23;9.43;;;;;;;17.05;78.40;98154.34;5034676;28;20091;-71
2021/07/24 02:21:17;;;;;;;16.63;9.18;;;;;;;17.18;77.72;98153.06;5037255;28;20026;-71
2021/07/24 02:23:42;;;;;;;15.70;9.40;;;;;;;17.19;77.66;98146.53;5036007;28;20367;-71
2021/07/24 02:26:11;;;;;;;17.80;9.65;;;;;;;17.23;78.38;98172.25;5036998;28;20021;-71
2021/07/24 02:28:37;;;;;;;15.65;9.98;;;;;;;16.77;79.24;98104.41;5018388;28;20036;-71
2021/07/24 02:31:02;;;;;;;16.85;9.73;;;;;;;16.92;79.98;98157.53;5034166;28;20029;-71
2021/07/24 02:33:28;;;;;;;15.35;9.48;;;;;;;16.86;80.23;98162.94;5026100;28;20037;-70
2021/07/24 02:35:53;;;;;;;15.23;9.60;;;;;;;16.87;80.74;98150.09;5040448;28;20390;-71
2021/07/24 02:38:18;;;;;;;14.60;9.70;;;;;;;17.01;80.70;98169.63;5022169;28;20025;-72
2021/07/24 02:40:44;;;;;;;14.93;10.15;;;;;;;17.08;79.29;98137.41;5037004;28;20509;-71
2021/07/24 02:43:09;;;;;;;14.95;9.75;;;;;;;17.33;78.63;98144.16;5035963;28;20028;-71
2021/07/24 02:45:34;;;;;;;16.38;10.05;;;;;;;17.20;78.91;98127.13;5036172;28;20056;-71
2021/07/24 02:48:00;;;;;;;17.88;10.95;;;;;;;17.21;79.15;98141.63;5019414;28;20057;-72
2021/07/24 02:50:25;;;;;;;17.85;10.18;;;;;;;16.97;79.62;98117.38;5034196;28;20103;-72
2021/07/24 02:52:50;;;;;;;19.17;9.43;;;;;;;17.00;80.28;98136.03;5030596;28;20393;-71
2021/07/24 02:55:16;;;;;;;16.25;10.27;;;;;;;16.83;80.05;98114.28;5028811;28;20463;-71
2021/07/24 02:57:41;;;;;;;13.95;10.13;;;;;;;16.92;80.05;98131.00;5016665;28;20033;-72
2021/07/24 03:00:07;;;;;;;18.10;10.30;;;;;;;16.88;80.57;98123.63;5032679;28;20461;-71
2021/07/24 03:02:33;;;;;;;18.55;10.75;;;;;;;16.87;80.93;98120.03;5035078;28;20032;-71
2021/07/24 03:04:58;;;;;;;13.55;8.88;;;;;;;16.92;81.01;98147.41;5037972;28;20120;-71
2021/07/24 03:07:23;;;;;;;18.10;10.20;;;;;;;16.75;81.26;98131.13;5047948;28;20060;-72
2021/07/24 03:09:49;;;;;;;15.85;9.80;;;;;;;16.58;81.27;98106.69;5053349;28;20036;-71
2021/07/24 03:12:17;;;;;;;15.80;10.15;;;;;;;16.52;81.61;98117.81;5034986;28;20067;-72
2021/07/24 03:14:43;;;;;;;16.95;10.98;;;;;;;16.58;82.16;98144.06;5017401;28;20033;-71
2021/07/24 03:17:08;;;;;;;15.05;9.93;;;;;;;16.30;82.70;98115.13;5036419;28;20025;-72
2021/07/24 03:19:33;;;;;;;15.77;9.60;;;;;;;16.60;82.46;98131.81;5035843;28;20411;-71
2021/07/24 03:21:58;;;;;;;15.27;9.60;;;;;;;16.56;81.56;98118.94;5032983;28;20036;-72
2021/07/24 03:24:24;;;;;;;17.70;10.27;;;;;;;16.47;82.57;98112.28;5050320;28;20032;-71
2021/07/24 03:26:49;;;;;;;15.75;10.45;;;;;;;16.60;84.38;98144.63;5037424;28;20402;-71
2021/07/24 03:29:15;;;;;;;17.05;10.15;;;;;;;16.61;85.21;98149.84;5052699;28;20037;-71
2021/07/24 03:31:40;;;;;;;16.13;10.73;;;;;;;16.37;86.23;98111.13;5052997;28;20082;-71
2021/07/24 03:34:05;;;;;;;17.70;10.55;;;;;;;16.34;85.66;98136.19;5052938;28;20086;-70
2021/07/24 03:36:30;;;;;;;18.25;11.07;;;;;;;16.17;86.71;98132.75;5027198;28;20605;-71
2021/07/24 03:38:56;;;;;;;17.02;11.15;;;;;;;16.10;87.30;98121.19;5020546;28;20024;-70
2021/07/24 03:41:21;;;;;;;20.98;11.82;;;;;;;16.02;87.57;98105.28;5033255;28;20031;-71
2021/07/24 03:43:46;;;;;;;18.27;10.95;;;;;;;16.28;87.49;98137.22;5032939;28;20026;-71
2021/07/24 03:46:16;;;;;;;17.58;10.93;;;;;;;16.15;87.51;98105.69;5017074;28;20036;-71
2021/07/24 03:48:43;;;;;;;18.63;11.02;;;;;;;16.31;87.57;98139.44;5040701;28;20070;-70
2021/07/24 03:51:10;;;;;;;18.40;10.93;;;;;;;16.28;87.57;98118.13;5049417;28;20024;-71
2021/07/24 03:53:36;;;;;;;20.52;11.40;;;;;;;16.61;86.14;98130.72;5022091;28;20020;-70
2021/07/24 03:56:02;;;;;;;18.08;11.90;;;;;;;16.51;87.18;98132.56;5044033;28;20043;-70
2021/07/24 03:58:27;;;;;;;15.68;10.73;;;;;;;16.64;87.23;98160.25;5043390;28;20040;-71
2021/07/24 04:00:52;;;;;;;20.08;11.95;;;;;;;16.60;87.65;98147.38;5034231;28;20029;-71
2021/07/24 04:03:18;;;;;;;17.95;11.15;;;;;;;16.50;87.46;98141.81;5032974;28;20029;-71
2021/07/24 04:05:45;;;;;;;15.07;10.20;;;;;;;16.62;87.36;98161.59;5033918;28;20036;-72
2021/07/24 04:08:11;;;;;;;16.42;10.05;;;;;;;16.51;86.49;98154.41;5032654;28;20033;-71
2021/07/24 04:10:38;;;;;;;14.98;10.50;;;;;;;16.67;86.49;98160.81;5025099;28;20025;-71
2021/07/24 04:13:04;;;;;;;14.18;9.95;;;;;;;16.80;85.66;98149.50;5033787;28;20048;-72
2021/07/24 04:15:30;;;;;;;15.45;10.23;;;;;;;17.08;84.88;98142.88;5045657;28;20052;-72
2021/07/24 04:17:58;;;;;;;17.73;11.32;;;;;;;17.23;84.92;98145.72;5041171;28;20466;-72
2021/07/24 04:20:23;;;;;;;17.17;10.90;;;;;;;17.46;84.82;98155.47;5019408;28;20375;-71
2021/07/24 04:22:48;;;;;;;16.85;11.00;;;;;;;17.39;84.98;98145.84;5032526;28;20025;-71
2021/07/24 04:25:14;;;;;;;17.67;11.57;;;;;;;17.52;84.68;98162.59;5024588;28;20108;-72
2021/07/24 04:27:42;;;;;;;21.15;11.60;;;;;;;17.43;83.52;98139.59;5034515;28;20022;-72
2021/07/24 04:30:08;;;;;;;20.10;12.40;;;;;;;17.45;83.44;98142.06;5035284;28;20108;-71
2021/07/24 04:32:33;;;;;;;19.05;11.50;;;;;;;17.37;82.63;98123.41;5047794;28;20350;-70
2021/07/24 04:34:59;;;;;;;19.58;12.98;;;;;;;17.41;83.13;98168.28;5037527;28;20437;-72
2021/07/24 04:37:24;;;;;;;27.95;11.80;;;;;;;17.21;84.54;98158.00;5022076;28;20095;-70
2021/07/24 04:39:50;;;;;;;16.25;10.48;;;;;;;16.98;85.07;98173.72;5037515;28;20471;-70
2021/07/24 04:42:15;;;;;;;17.45;10.80;;;;;;;17.10;85.63;98203.59;5033488;28;20039;-70
2021/07/24 04:44:40;;;;;;;17.20;11.23;;;;;;;17.11;85.45;98205.25;5051748;28;20037;-70
2021/07/24 04:47:06;;;;;;;16.88;11.20;;;;;;;16.94;84.63;98158.09;5035376;28;20025;-70
2021/07/24 04:49:32;;;;;;;15.68;10.23;;;;;;;17.08;84.88;98189.34;5020643;28;20025;-70
2021/07/24 04:52:01;;;;;;;17.08;11.70;;;;;;;17.29;84.50;98193.06;5045133;28;20096;-70
2021/07/24 04:54:28;;;;;;;15.82;11.35;;;;;;;17.44;82.06;98178.69;5029227;28;20025;-70
2021/07/24 04:56:54;;;;;;;18.20;11.52;;;;;;;17.59;82.10;98205.31;5048314;28;20025;-74
2021/07/24 04:59:19;;;;;;;17.70;11.23;;;;;;;17.46;82.60;98201.13;5021433;28;20403;-74
2021/07/24 05:01:45;;;;;;;16.15;10.88;;;;;;;17.53;82.44;98220.88;5016847;28;20382;-73
2021/07/24 05:04:11;;;;;;;20.00;11.55;;;;;;;17.52;81.72;98216.47;5051347;28;20100;-74
2021/07/24 05:06:36;;;;;;;17.20;11.40;;;;;;;17.51;82.33;98217.59;5038876;28;20033;-74
2021/07/24 05:09:06;;;;;;;17.67;11.07;;;;;;;17.53;83.41;98220.88;5021312;28;20415;-74
2021/07/24 05:11:33;;;;;;;17.75;11.65;;;;;;;17.45;83.94;98232.31;5014349;28;20017;-73
2021/07/24 05:13:59;;;;;;;19.05;10.85;;;;;;;17.44;83.96;98206.84;5044314;28;20030;-69
2021/07/24 05:16:24;;;;;;;17.38;11.85;;;;;;;17.70;84.01;98243.41;5031854;28;20029;-70
2021/07/24 05:18:49;;;;;;;15.98;10.68;;;;;;;17.88;83.03;98227.69;5018802;28;20483;-69
2021/07/24 05:21:16;;;;;;;18.42;11.52;;;;;;;17.80;82.68;98225.47;5032741;28;20040;-69
2021/07/24 05:23:42;;;;;;;20.88;11.82;;;;;;;17.86;83.19;98219.75;5034998;28;20041;-69
2021/07/24 05:26:11;;;;;;;19.75;13.07;;;;;;;17.93;82.51;98216.78;5049483;28;20067;-70
2021/07/24 05:28:37;;;;;;;18.95;11.60;;;;;;;17.75;82.55;98202.41;5040233;28;20017;-68
2021/07/24 05:31:02;;;;;;;23.98;12.00;;;;;;;17.96;81.99;98221.72;5036031;28;20036;-68
2021/07/24 05:33:27;;;;;;;21.48;12.88;;;;;;;18.14;81.43;98213.03;5042056;28;20119;-67
2021/07/24 05:35:52;;;;;;;17.73;11.60;;;;;;;18.20;80.95;98211.16;5043294;28;20036;-71
2021/07/24 05:38:18;;;;;;;19.85;12.52;;;;;;;18.39;80.48;98216.97;5052505;28;20465;-68
2021/07/24 05:40:43;;;;;;;25.55;12.98;;;;;;;18.46;79.83;98220.28;5039803;28;20013;-69
2021/07/24 05:43:09;;;;;;;20.35;12.00;;;;;;;18.73;79.60;98244.75;5051990;28;20035;-68
2021/07/24 05:45:34;;;;;;;18.83;11.85;;;;;;;18.79;80.10;98251.13;5035528;28;20532;-68
2021/07/24 05:47:59;;;;;;;21.38;12.30;;;;;;;18.65;79.48;98241.72;5047959;28;20035;-73
2021/07/24 05:50:25;;;;;;;21.33;11.70;;;;;;;18.99;78.32;98258.53;5017505;28;20029;-67
2021/07/24 05:52:50;;;;;;;22.88;12.40;;;;;;;19.21;77.71;98250.09;5038077;28;20032;-68
2021/07/24 05:55:15;;;;;;;16.55;11.23;;;;;;;19.61;76.89;98226.47;5037055;28;20028;-68
2021/07/24 05:57:40;;;;;;;19.73;12.15;;;;;;;19.92;75.47;98233.56;5040911;28;20021;-68
2021/07/24 06:00:08;;;;;;;18.00;11.48;;;;;;;20.37;73.24;98222.72;5039132;28;20021;-68
2021/07/24 06:02:33;;;;;;;17.83;10.80;;;;;;;20.73;71.40;98220.66;5035082;28;20024;-69
2021/07/24 06:04:59;;;;;;;18.70;11.35;;;;;;;21.02;69.64;98231.72;5035529;28;20033;-68
2021/07/24 06:07:24;;;;;;;20.02;11.77;;;;;;;21.07;69.78;98244.63;5054647;28;20021;-69
2021/07/24 06:09:49;;;;;;;20.80;12.13;;;;;;;20.89;69.57;98234.31;5043716;28;20131;-69
2021/07/24 06:12:14;;;;;;;18.98;12.07;;;;;;;20.76;69.21;98258.56;5039863;28;20034;-68
2021/07/24 06:14:40;;;;;;;17.35;10.85;;;;;;;20.84;69.25;98264.56;5041168;28;20067;-68
2021/07/24 06:17:05;;;;;;;17.30;11.30;;;;;;;20.73;69.87;98267.38;5040907;28;20022;-68
2021/07/24 06:19:31;;;;;;;16.75;12.07;;;;;;;20.76;69.92;98264.06;5039600;28;20487;-69
2021/07/24 06:21:56;;;;;;;18.88;12.05;;;;;;;20.52;70.50;98263.06;5041954;28;20078;-69
2021/07/24 06:24:21;;;;;;;16.77;10.52;;;;;;;20.51;71.58;98277.88;5040128;28;20037;-70
2021/07/24 06:26:46;;;;;;;17.73;11.52;;;;;;;20.53;70.95;98272.94;5041587;28;20044;-70
2021/07/24 06:29:12;;;;;;;21.15;11.25;;;;;;;20.95;69.72;98286.22;5043298;28;20029;-70
2021/07/24 06:31:38;;;;;;;22.20;11.85;;;;;;;20.87;70.47;98266.75;5040188;28;20017;-69
2021/07/24 06:34:04;;;;;;;16.25;10.95;;;;;;;20.95;71.37;98277.16;5037851;28;20033;-69
2021/07/24 06:36:29;;;;;;;19.73;11.95;;;;;;;20.83;72.81;98279.41;5040381;28;20025;-69
2021/07/24 06:38:56;;;;;;;17.48;10.15;;;;;;;20.92;70.67;98274.97;5028337;28;20157;-70
2021/07/24 06:41:21;;;;;;;17.73;10.57;;;;;;;20.68;71.64;98286.66;5047975;28;20025;-69
2021/07/24 06:43:47;;;;;;;16.88;10.98;;;;;;;20.60;72.38;98320.22;5046973;28;20417;-69
2021/07/24 06:46:13;;;;;;;20.63;12.23;;;;;;;20.67;72.53;98323.50;5037231;28;20137;-71
2021/07/24 06:48:39;;;;;;;19.67;12.85;;;;;;;20.50;72.62;98303.72;5042348;28;20034;-68
2021/07/24 06:51:06;;;;;;;17.40;12.07;;;;;;;20.43;73.40;98303.19;5048987;28;20021;-72
2021/07/24 06:53:32;;;;;;;16.02;11.00;;;;;;;20.42;72.58;98337.28;5049527;28;20072;-68
2021/07/24 06:55:57;;;;;;;21.15;11.40;;;;;;;20.50;72.02;98325.72;5022036;28;20489;-68
2021/07/24 06:58:23;;;;;;;20.63;11.25;;;;;;;20.57;71.49;98326.28;5051022;28;20108;-68
2021/07/24 07:00:48;;;;;;;19.33;11.02;;;;;;;20.54;72.09;98344.16;5021911;28;20048;-68
2021/07/24 07:03:13;;;;;;;15.90;10.27;;;;;;;20.47;73.52;98351.00;5052367;28;20025;-69
2021/07/24 07:05:39;;;;;;;17.20;10.98;;;;;;;20.66;73.47;98329.25;5039689;28;20505;-69
2021/07/24 07:08:04;;;;;;;14.80;10.35;;;;;;;21.08;71.27;98314.22;5038114;28;20021;-68
2021/07/24 07:10:29;;;;;;;22.05;10.82;;;;;;;21.29;70.94;98292.91;5041015;28;20336;-68
2021/07/24 07:12:54;;;;;;;17.00;10.93;;;;;;;21.63;70.49;98265.41;5038310;28;20031;-68
2021/07/24 07:15:20;;;;;;;15.60;10.65;;;;;;;21.93;68.82;98260.72;5042071;28;20415;-69
2021/07/24 07:17:45;;;;;;;16.30;10.77;;;;;;;22.47;66.65;98265.13;5040116;28;20017;-69
2021/07/24 07:20:11;;;;;;;18.00;10.48;;;;;;;22.67;65.99;98261.28;5040696;28;20021;-69
2021/07/24 07:22:36;;;;;;;20.45;11.27;;;;;;;22.48;65.33;98286.06;5041117;28;20036;-69
2021/07/24 07:25:02;;;;;;;19.40;11.10;;;;;;;22.54;65.18;98285.69;5038860;28;20116;-69
2021/07/24 07:27:27;;;;;;;13.82;9.88;;;;;;;22.40;65.32;98276.50;5040922;28;20060;-69
2021/07/24 07:29:53;;;;;;;17.48;10.45;;;;;;;22.13;65.97;98295.50;5038721;28;20025;-68
2021/07/24 07:32:18;;;;;;;15.55;10.75;;;;;;;21.95;67.22;98270.34;5050667;28;20052;-74
2021/07/24 07:34:44;;;;;;;14.68;10.85;;;;;;;21.77;67.21;98254.53;5037708;28;20470;-73
2021/07/24 07:37:09;;;;;;;17.65;10.63;;;;;;;21.79;66.47;98264.16;5034056;28;20486;-72
2021/07/24 07:39:43;;;;;;;17.27;10.05;;;;;;;21.99;67.33;98267.84;5054772;28;20075;-74
2021/07/24 07:42:08;;;;;;;13.50;9.93;;;;;;;22.09;65.77;98260.28;5053692;28;20028;-73
2021/07/24 07:44:33;;;;;;;13.10;9.25;;;;;;;22.08;64.15;98277.09;5033774;28;20030;-71
2021/07/24 07:46:58;;;;;;;14.98;10.27;;;;;;;21.81;64.60;98294.16;5035472;28;20105;-71
2021/07/24 07:49:24;;;;;;;17.27;10.43;;;;;;;21.74;64.54;98285.41;5022422;28;20032;-71
2021/07/24 07:51:49;;;;;;;16.52;10.48;;;;;;;21.80;65.17;98293.34;5023863;28;20021;-70
2021/07/24 07:54:14;;;;;;;15.18;9.57;;;;;;;21.82;65.53;98304.91;5037019;28;20048;-76
2021/07/24 07:56:40;;;;;;;15.45;9.93;;;;;;;21.88;65.47;98312.00;5035683;28;20030;-69
2021/07/24 07:59:05;;;;;;;14.60;10.15;;;;;;;21.89;65.90;98301.78;5032633;28;20025;-71
2021/07/24 08:01:30;;;;;;;15.43;9.70;;;;;;;21.91;65.91;98313.34;5052399;28;20020;-72
2021/07/24 08:03:56;;;;;;;17.85;11.05;;;;;;;21.77;67.68;98332.47;5045335;28;20877;-72
2021/07/24 08:06:21;;;;;;;14.85;9.93;;;;;;;21.76;67.31;98330.00;5021854;28;20022;-76
2021/07/24 08:08:47;;;;;;;14.00;9.63;;;;;;;21.80;67.54;98328.34;5035849;28;20028;-72
2021/07/24 08:11:13;;;;;;;14.10;10.20;;;;;;;21.93;67.62;98313.88;5050461;28;20108;-73
2021/07/24 08:13:39;;;;;;;15.45;9.43;;;;;;;21.75;69.46;98292.56;5026992;28;20079;-73
2021/07/24 08:16:12;;;;;;;13.68;9.20;;;;;;;21.89;68.69;98315.56;5049410;28;20032;-73
2021/07/24 08:18:37;;;;;;;14.25;9.25;;;;;;;21.96;68.30;98293.22;5040525;28;20390;-73
2021/07/24 08:21:04;;;;;;;15.70;9.57;;;;;;;22.30;68.10;98317.97;5041080;28;20108;-73
2021/07/24 08:23:29;;;;;;;14.77;8.85;;;;;;;22.45;67.67;98312.28;5021990;28;20091;-73
2021/07/24 08:25:54;;;;;;;14.68;8.95;;;;;;;22.50;66.10;98333.44;5037940;28;20486;-72
2021/07/24 08:28:24;;;;;;;18.60;10.32;;;;;;;22.39;66.41;98331.91;5050959;28;20083;-72
2021/07/24 08:30:50;;;;;;;14.40;9.20;;;;;;;22.35;66.56;98304.13;5049319;28;20045;-71
2021/07/24 08:33:15;;;;;;;16.40;9.05;;;;;;;22.27;66.38;98313.84;5050827;28;20025;-72
2021/07/24 08:35:40;;;;;;;18.42;9.43;;;;;;;22.08;66.71;98288.94;5035249;28;20076;-68
2021/07/24 08:38:06;;;;;;;16.48;10.05;;;;;;;21.91;66.68;98283.06;5033814;28;20044;-69
2021/07/24 08:40:31;;;;;;;15.32;9.48;;;;;;;21.88;66.59;98278.13;5038776;28;20112;-69
2021/07/24 08:43:03;;;;;;;15.52;9.85;;;;;;;22.06;66.69;98219.53;5035364;28;20071;-69
2021/07/24 08:45:28;;;;;;;16.17;9.43;;;;;;;22.32;67.26;98202.72;5031338;28;20116;-69
2021/07/24 08:47:54;;;;;;;15.20;10.00;;;;;;;22.61;66.21;98190.75;5034533;28;20558;-69
2021/07/24 08:50:19;;;;;;;13.88;9.55;;;;;;;22.73;66.34;98171.84;5037314;28;20034;-69
2021/07/24 08:52:52;;;;;;;16.50;9.75;;;;;;;23.39;65.42;98190.13;5039563;28;20021;-67
2021/07/24 08:55:21;;;;;;;13.48;9.52;;;;;;;23.94;64.11;98169.28;5034453;28;20036;-72
2021/07/24 08:57:49;;;;;;;13.48;9.20;;;;;;;25.50;60.76;98161.63;5028565;28;20021;-67
2021/07/24 09:00:15;;;;;;;14.52;9.45;;;;;;;27.18;54.57;98169.78;5045609;28;20060;-68
2021/07/24 09:02:43;;;;;;;14.70;9.50;;;;;;;28.02;50.82;98161.09;5038123;28;20052;-68
2021/07/24 09:05:11;;;;;;;15.10;9.25;;;;;;;28.77;47.88;98155.75;5045555;28;20025;-68
2021/07/24 09:07:41;;;;;;;12.73;8.43;;;;;;;29.00;46.59;98148.69;5043295;28;20163;-68
2021/07/24 09:10:08;;;;;;;14.77;9.35;;;;;;;29.08;45.80;98152.56;5042930;28;20028;-67
2021/07/24 09:12:38;;;;;;;15.10;9.27;;;;;;;28.63;45.99;98151.25;5038400;28;20029;-67
2021/07/24 09:15:05;;;;;;;12.18;8.98;;;;;;;28.31;47.68;98152.75;5038183;28;20030;-67
2021/07/24 09:17:30;;;;;;;11.32;8.65;;;;;;;28.11;49.57;98148.78;5046330;28;20120;-68
2021/07/24 09:19:57;;;;;;;12.63;9.00;;;;;;;28.15;49.13;98160.84;5042755;28;20056;-67
2021/07/24 09:22:36;;;;;;;12.90;8.23;;;;;;;28.61;49.00;98147.16;5044364;28;20440;-67
2021/07/24 09:25:08;;;;;;;13.80;8.23;;;;;;;29.56;46.57;98153.91;5051210;28;20653;-67
2021/07/24 09:27:44;;;;;;;13.93;8.93;;;;;;;30.32;44.88;98163.66;5033342;28;20391;-67
2021/07/24 09:30:33;;;;;;;14.60;8.60;;;;;;;31.46;43.07;98159.09;5037346;28;20037;-67
2021/07/24 09:33:16;;;;;;;9.77;7.70;;;;;;;33.59;35.62;98156.94;5041125;28;20025;-68
2021/07/24 09:35:54;;;;;;;12.07;9.15;;;;;;;33.54;36.30;98153.63;5046814;28;20026;-67
2021/07/24 09:38:26;;;;;;;11.38;7.93;;;;;;;35.30;33.38;98165.63;5039034;28;20033;-68
2021/07/24 09:40:52;;;;;;;11.13;7.40;;;;;;;35.37;34.02;98168.50;5032764;28;20043;-67
2021/07/24 09:43:33;;;;;;;11.13;8.10;;;;;;;36.15;33.15;98179.78;5041339;28;20063;-67
2021/07/24 09:46:18;;;;;;;10.82;7.85;;;;;;;37.18;31.08;98178.06;5033094;28;20083;-68
2021/07/24 09:48:45;;;;;;;11.85;7.57;;;;;;;36.91;31.91;98163.41;5033391;28;20178;-67
2021/07/24 09:51:11;;;;;;;10.43;7.10;;;;;;;35.63;33.10;98167.59;5042144;28;20021;-67
2021/07/24 09:53:42;;;;;;;10.45;7.38;;;;;;;34.34;35.71;98191.09;5039448;28;20060;-67
2021/07/24 09:56:15;;;;;;;12.88;7.55;;;;;;;35.77;32.89;98181.03;5042200;28;20025;-67
2021/07/24 09:58:44;;;;;;;10.65;7.82;;;;;;;34.38;35.73;98161.09;5044897;28;20029;-67
2021/07/24 10:01:11;;;;;;;11.85;7.70;;;;;;;34.35;34.31;98153.44;5045482;28;20091;-68
2021/07/24 10:03:41;;;;;;;11.13;7.45;;;;;;;34.80;34.28;98174.19;5041527;28;20053;-67
2021/07/24 10:06:12;;;;;;;8.20;6.57;;;;;;;35.24;33.30;98162.34;5036021;28;20017;-67
2021/07/24 10:08:40;;;;;;;12.73;7.80;;;;;;;34.14;35.60;98172.72;5019770;28;20075;-67
2021/07/24 10:11:06;;;;;;;9.30;7.32;;;;;;;33.58;36.18;98163.69;5039208;28;20025;-67
2021/07/24 10:13:32;;;;;;;8.68;6.97;;;;;;;33.63;35.82;98148.56;5036106;28;20037;-68
2021/07/24 10:15:57;;;;;;;10.02;7.25;;;;;;;35.20;33.31;98150.22;5037937;28;20021;-67
2021/07/24 10:18:22;;;;;;;9.85;6.80;;;;;;;35.37;33.32;98148.81;5035205;28;20651;-67
2021/07/24 10:20:50;;;;;;;10.38;7.55;;;;;;;36.22;32.31;98156.50;5032706;28;20037;-68
2021/07/24 10:23:26;;;;;;;9.38;6.38;;;;;;;36.49;31.06;98156.31;5032120;28;20409;-68
2021/07/24 10:26:15;;;;;;;11.50;7.38;;;;;;;36.51;30.82;98157.53;5036818;28;20047;-68
2021/07/24 10:29:04;;;;;;;8.45;7.28;;;;;;;36.97;31.03;98159.84;5037014;28;20581;-68
2021/07/24 10:31:36;;;;;;;10.32;7.63;;;;;;;37.37;30.59;98160.84;5032911;28;20029;-68
2021/07/24 10:34:04;;;;;;;11.13;7.82;;;;;;;37.44;30.42;98162.84;5043852;28;20049;-68
2021/07/24 10:36:36;;;;;;;10.07;7.70;;;;;;;37.20;31.29;98158.75;5041360;28;20035;-68
2021/07/24 10:39:18;;;;;;;9.32;7.03;;;;;;;37.10;30.71;98151.03;5033794;28;20033;-68
2021/07/24 10:41:49;;;;;;;9.73;7.15;;;;;;;37.27;30.15;98151.13;5037237;28;20037;-67
2021/07/24 10:44:34;;;;;;;11.10;7.57;;;;;;;36.72;31.54;98147.63;5031802;28;20071;-67
2021/07/24 10:47:02;;;;;;;10.07;7.43;;;;;;;36.55;31.10;98146.28;5033940;28;20060;-67
2021/07/24 10:49:33;;;;;;;8.90;7.03;;;;;;;38.47;28.01;98141.63;5033483;28;20143;-68
2021/07/24 10:52:06;;;;;;;12.82;7.72;;;;;;;37.55;29.81;98129.06;5034869;28;20017;-67
2021/07/24 10:54:33;;;;;;;13.23;8.25;;;;;;;36.75;30.68;98133.53;5032629;28;20048;-68
2021/07/24 10:56:59;;;;;;;15.02;8.20;;;;;;;36.79;30.87;98134.38;5036187;28;20036;-68
2021/07/24 10:59:28;;;;;;;10.90;7.03;;;;;;;35.05;32.67;98135.13;5036153;28;20033;-68
2021/07/24 11:01:58;;;;;;;14.43;8.38;;;;;;;34.28;34.15;98138.47;5031549;28;20028;-67
2021/07/24 11:04:35;;;;;;;11.43;7.85;;;;;;;32.92;36.17;98134.69;5032399;28;20037;-67
2021/07/24 11:07:13;;;;;;;15.55;8.52;;;;;;;32.17;37.77;98132.97;5030499;28;20545;-67
2021/07/24 11:09:40;;;;;;;13.77;7.93;;;;;;;31.93;38.50;98122.00;5032576;28;20029;-67
2021/07/24 11:12:06;;;;;;;10.07;7.72;;;;;;;32.58;37.07;98125.16;5040106;28;20827;-67
2021/07/24 11:14:38;;;;;;;9.30;6.95;;;;;;;34.38;34.07;98126.59;5030663;28;20037;-67
2021/07/24 11:17:03;;;;;;;14.68;7.53;;;;;;;33.23;36.11;98130.16;5031133;28;20106;-67
2021/07/24 11:19:29;;;;;;;10.38;7.88;;;;;;;32.36;38.18;98134.22;5033426;28;20515;-67
2021/07/24 11:22:07;;;;;;;12.13;7.25;;;;;;;31.44;40.33;98139.91;5035315;28;20029;-67
2021/07/24 11:24:32;;;;;;;15.95;8.98;;;;;;;30.93;40.27;98129.25;5014494;28;20053;-67
2021/07/24 11:27:00;;;;;;;14.93;7.80;;;;;;;31.57;39.43;98124.66;5016833;28;20541;-67